AirNav   Everest Fuels
 
 676 users online  

KCJJ Ellen Church Field Airport
Cresco, Iowa, USA

GOING TO CRESCO?


FAA INFORMATION EFFECTIVE 17 JUNE 2021

Location

FAA Identifier: CJJ
Lat/Long: 43-21-55.0850N 092-07-59.0990W
43-21.918083N 092-07.984983W
43.3653014,-92.1330831
(estimated)
Elevation: 1279 ft. / 389.8 m (surveyed)
Variation: 02E (1985)
From city: 1 mile SW of CRESCO, IA
Time zone: UTC -5 (UTC -6 during Standard Time)
Zip code: 52136

Airport Operations

Airport use: Open to the public
Activation date: 06/1963
Control tower: no
ARTCC: MINNEAPOLIS CENTER
FSS: FORT DODGE FLIGHT SERVICE STATION
NOTAMs facility: FOD (NOTAM-D service available)
Attendance: UNATNDD
Wind indicator: lighted
Segmented circle: no
Lights: DUSK-DAWN. ACTVT LIRL RWY 15/33 - 122.7.

Airport Communications

CTAF/UNICOM: 122.8
WX AWOS-3 at DEH (18 nm E): 120.925 (563-382-2990)
WX AWOS-3 at FKA (19 nm N): 118.550 (507-765-2182)
  • ANSWERED BY POLICE; NOT ON FIELD.
  • APCH/DEP SVC PRVDD BY MINNAEPOLIS ARTCC ON FREQ 118.85 (LA CROSSE RCAG).

Nearby radio navigation aids

VOR radial/distance  VOR name  Freq  Var
RSTr136/32.2ROCHESTER VOR/DME112.0005E
JAYr110/36.5AUSTIN VOR/DME108.2000E

Airport Services

Oil available: CTAF/UNICOM OTS INDEFLY.
Parking: tiedowns
Airframe service: NONE
Powerplant service: NONE
Bottled oxygen: NONE
Bulk oxygen: NONE

Runway Information

Runway 15/33

Dimensions: 2949 x 50 ft. / 899 x 15 m
Surface: concrete, in fair condition
Weight bearing capacity: 
Single wheel: 29.0
Runway edge lights: low intensity
RUNWAY 15  RUNWAY 33
Latitude: 43-22.136017N43-21.699233N
Longitude: 092-08.129617W092-07.839467W
Elevation: 1279.0 ft.1265.0 ft.
Traffic pattern: leftleft
Runway heading: 152 magnetic, 154 true332 magnetic, 334 true
Markings: nonprecision, in fair conditionnonprecision, in fair condition
Touchdown point: yes, no lightsyes, no lights
Obstructions: 56 ft. trees, 1350 ft. from runway, 11 ft. left of centerline, 20:1 slope to clear25 ft. pole, 714 ft. from runway, 228 ft. left of centerline, 20:1 slope to clear

Airport Ownership and Management from official FAA records

Ownership: Publicly-owned
Owner: CITY OF CRESCO
130 NORTH PARK PLACE
CRESCO, IA 52136
Phone 319-547-3101
Manager: CLAIR PECINOVSKY
12848 WELL ROAD
CRESCO, IA 52136
Phone 563-547-4898

Airport Operational Statistics

Aircraft based on the field: 8
Single engine airplanes: 7
Ultralights: 1
    
Aircraft operations: avg 29/week *
75% local general aviation
25% transient general aviation
* for 12-month period ending 12 September 2018

Additional Remarks

BE ALERT FOR ULTRALIGHT ACTIVITY ON & INVOF ARPT.
FOR CD CTC ROCHESTER APCH AT 507-424-8111. FOR CD WHEN ROCHESTER APCH IS CLOSED, CTC MINNEAPOLIS ARTCC AT 651-463-5588.

Instrument Procedures

NOTE: All procedures below are presented as PDF files. If you need a reader for these files, you should download the free Adobe Reader.

NOT FOR NAVIGATION. Please procure official charts for flight.
FAA instrument procedures published for use from 17 June 2021 at 0901Z to 15 July 2021 at 0900Z.

 
IAPs - Instrument Approach Procedures
GPS RWY 15   download (162KB)
GPS RWY 33   download (159KB)
NOTE: Special Take-Off Minimums/Departure Procedures apply   download (158KB)

Other nearby airports with instrument procedures:

KDEH - Decorah Municipal Airport (18 nm E)
KFKA - Fillmore County Airport (19 nm N)
3Y2 - George L Scott Municipal Airport (27 nm SE)
KCCY - Northeast Iowa Regional Airport (27 nm SW)
55Y - Rushford Municipal-Robert W Bunke Field Airport (30 nm NE)
 
Loc | Ops | Rwys | IFR | FBO | Links
Com | Nav | Svcs | Stats | Notes
Area around KCJJ (Ellen Church Field Airport)
 
Road maps at: MapQuest Bing Google
 
Aerial photo
WARNING: Photo may not be current or correct
Aerial photo of KCJJ (Ellen Church Field Airport)
Photo taken 27-Aug-2006

Do you have a better or more recent aerial photo of Ellen Church Field Airport that you would like to share? If so, please send us your photo.

 
Sectional chart

 
Airport distance calculator
Flying to Ellen Church Field Airport? Find the distance to fly.

From to KCJJ

Sunrise and sunset
Times for 24-Jun-2021
 Local
(UTC-5)
 Zulu
(UTC)
Morning civil twilight04:5409:54
Sunrise05:3010:30
Sunset20:5201:52
Evening civil twilight21:2802:28

Current date and time
Zulu (UTC)  24-Jun-2021 05:11:14
Local (UTC-5)  24-Jun-2021 00:11:14
 
METAR
KDEH 
19nm E 
240455Z AUTO 19009G18KT 10SM OVC046 24/19 A2983 RMK AO2
KFKA 
19nm N 
231601Z AUTO 18012G15KT 10SM CLR 23/15 A2984 RMK AO2
KCCY 
28nm SW 
240455Z AUTO 18014KT 10SM OVC038 25/19 A2983 RMK AO2
KRST 
36nm NW 
240454Z 18012KT 10SM OVC043 24/19 A2980 RMK AO2 SLP084 T02390194
TAF
KRST 
36nm NW 
231733Z 2318/2418 18009KT P6SM SCT035 FM241000 20012KT P6SM BKN035 FM241700 22010G18KT P6SM BKN050
NOTAMs
Click for the latest NOTAMs
NOTAMs are issued by the DoD/FAA and will open in a separate window not controlled by AirNav.

 

 
 

Would you like to see your business listed on this page?

 If your business provides an interesting product or service to pilots, flight crews, aircraft, or users of the Ellen Church Field Airport, you should consider listing it here.  To start the listing process, click on the button below
 
Add a business
 

Other Pages about Ellen Church Field Airport

Page from the Iowa Airport Directory
 
Update a link
 
Copyright © AirNav, LLC. All rights reserved. Privacy Policy  Contact